createdAt,value
2022-07-31T00:00:02.712Z,22.7
2022-07-31T00:05:02.518Z,22.7
2022-07-31T00:10:01.871Z,22.7
2022-07-31T00:15:02.058Z,22.7
2022-07-31T00:20:02.581Z,22.7
2022-07-31T00:25:02.342Z,22.7
2022-07-31T00:30:02.537Z,22.7
2022-07-31T00:35:01.643Z,22.7
2022-07-31T00:40:01.758Z,22.7
2022-07-31T00:45:01.886Z,22.7
2022-07-31T00:50:02.040Z,22.7
2022-07-31T00:55:02.221Z,22.7
2022-07-31T01:00:02.406Z,22.7
2022-07-31T01:05:02.461Z,22.7
2022-07-31T01:10:01.753Z,22.7
2022-07-31T01:15:01.805Z,22.7
2022-07-31T01:20:01.907Z,22.7
2022-07-31T01:25:02.040Z,22.7
2022-07-31T01:30:02.231Z,22.7
2022-07-31T01:35:02.373Z,22.7
2022-07-31T01:40:02.498Z,22.7
2022-07-31T01:45:01.612Z,22.7
2022-07-31T01:50:01.742Z,22.7
2022-07-31T01:55:01.929Z,22.7
2022-07-31T02:00:02.063Z,22.7
2022-07-31T02:05:02.185Z,22.7
2022-07-31T02:10:02.332Z,22.7
2022-07-31T02:15:02.514Z,22.7
2022-07-31T02:20:01.619Z,22.7
2022-07-31T02:25:01.764Z,22.7
2022-07-31T02:30:02.117Z,22.7
2022-07-31T02:35:02.287Z,22.7
2022-07-31T02:40:02.224Z,22.7
2022-07-31T02:45:02.443Z,22.7
2022-07-31T02:50:02.499Z,22.7
2022-07-31T02:55:01.937Z,22.7
2022-07-31T03:00:07.173Z,22.7
2022-07-31T03:05:02.574Z,22.7
2022-07-31T03:10:06.615Z,22.7
2022-07-31T03:15:08.168Z,22.7
2022-07-31T03:20:03.073Z,22.7
2022-07-31T03:25:02.874Z,22.7
2022-07-31T03:30:02.365Z,22.7
2022-07-31T03:35:13.807Z,22.7
2022-07-31T03:40:03.166Z,22.7
2022-07-31T03:45:03.087Z,22.7
2022-07-31T03:50:02.240Z,22.7
2022-07-31T03:55:02.345Z,22.7
2022-07-31T04:00:03.164Z,22.7
2022-07-31T04:05:01.681Z,22.7
2022-07-31T04:10:01.812Z,22.7
2022-07-31T04:15:02.874Z,22.7
2022-07-31T04:20:02.327Z,22.7
2022-07-31T04:25:03.965Z,22.7
2022-07-31T04:30:03.023Z,22.7
2022-07-31T04:35:02.528Z,22.7
2022-07-31T04:40:01.661Z,22.7
2022-07-31T04:45:01.869Z,22.7
2022-07-31T04:50:02.167Z,22.7
2022-07-31T04:55:02.403Z,22.7
2022-07-31T05:00:03.107Z,22.7
2022-07-31T05:05:01.710Z,22.7
2022-07-31T05:10:01.851Z,22.7
2022-07-31T05:15:02.097Z,22.7
2022-07-31T05:20:02.226Z,22.7
2022-07-31T05:25:02.388Z,22.7
2022-07-31T05:30:02.639Z,22.7
2022-07-31T05:35:02.462Z,22.7
2022-07-31T05:40:01.874Z,22.7
2022-07-31T05:45:02.177Z,22.7
2022-07-31T05:50:02.335Z,22.7
2022-07-31T05:55:02.297Z,22.7
2022-07-31T06:00:03.930Z,22.7
2022-07-31T06:05:03.653Z,22.7
2022-07-31T06:10:02.246Z,19.4
2022-07-31T06:15:02.031Z,19.3
2022-07-31T06:20:02.018Z,19.2
2022-07-31T06:25:02.578Z,19.5
2022-07-31T06:30:02.342Z,19.7
2022-07-31T06:35:03.272Z,20
2022-07-31T06:40:02.463Z,20.5
2022-07-31T06:45:01.972Z,20.6
2022-07-31T06:50:02.299Z,20.6
2022-07-31T06:55:02.187Z,21
2022-07-31T07:00:06.992Z,21.2
2022-07-31T07:05:05.443Z,21.4
2022-07-31T07:10:03.087Z,21.8
2022-07-31T07:15:03.352Z,21.9
2022-07-31T07:20:02.657Z,22
2022-07-31T07:25:01.766Z,22.3
2022-07-31T07:30:02.357Z,22.5
2022-07-31T07:35:03.285Z,22.5
2022-07-31T07:40:03.546Z,22.5
2022-07-31T07:45:02.800Z,22.5
2022-07-31T07:50:02.011Z,22.5
2022-07-31T07:55:02.176Z,22.5
2022-07-31T08:00:02.419Z,22.5
2022-07-31T08:05:03.201Z,22.5
2022-07-31T08:10:02.400Z,22.5
2022-07-31T08:15:02.692Z,22.5
2022-07-31T08:20:02.010Z,22.5
2022-07-31T08:25:05.099Z,22.5
2022-07-31T08:30:02.319Z,22.5
2022-07-31T08:35:03.200Z,22.5
2022-07-31T08:40:03.356Z,22.5
2022-07-31T08:45:02.512Z,22.5
2022-07-31T08:50:01.809Z,22.5
2022-07-31T08:55:01.977Z,22.5
2022-07-31T09:00:02.211Z,22.5
2022-07-31T09:05:03.097Z,22.5
2022-07-31T09:10:03.280Z,22.5
2022-07-31T09:15:02.575Z,22.5
2022-07-31T09:20:01.828Z,22.5
2022-07-31T09:25:01.972Z,22.5
2022-07-31T09:30:02.126Z,22.5
2022-07-31T09:35:03.027Z,22.5
2022-07-31T09:40:03.247Z,22.5
2022-07-31T09:45:03.525Z,22.5
2022-07-31T09:50:01.767Z,22.5
2022-07-31T09:55:01.947Z,22.5
2022-07-31T10:00:02.489Z,22.5
2022-07-31T10:05:03.130Z,22.5
2022-07-31T10:10:03.219Z,22.5
2022-07-31T10:15:02.661Z,22.5
2022-07-31T10:20:01.673Z,22.5
2022-07-31T10:25:01.827Z,22.5
2022-07-31T10:30:02.863Z,22.5
2022-07-31T10:35:02.969Z,22.5
2022-07-31T10:40:03.145Z,22.5
2022-07-31T10:45:02.585Z,22.5
2022-07-31T10:50:01.685Z,22.5
2022-07-31T10:55:01.837Z,22.5
2022-07-31T11:00:02.033Z,22.5
2022-07-31T11:05:02.892Z,22.5
2022-07-31T11:10:03.022Z,22.5
2022-07-31T11:15:03.304Z,22.5
2022-07-31T11:20:02.631Z,22.5
2022-07-31T11:25:01.726Z,22.5
2022-07-31T11:30:04.058Z,22.5
2022-07-31T11:35:03.279Z,22.5
2022-07-31T11:40:03.110Z,22.5
2022-07-31T11:45:08.562Z,22.5
2022-07-31T11:50:02.637Z,22.5
2022-07-31T11:55:05.475Z,22.5
2022-07-31T12:00:02.608Z,22.5
2022-07-31T12:05:02.700Z,22.5
2022-07-31T12:10:03.845Z,22.5
2022-07-31T12:15:03.235Z,22.5
2022-07-31T12:20:02.463Z,22.5
2022-07-31T12:25:06.115Z,22.5
2022-07-31T12:30:01.757Z,22.5
2022-07-31T12:35:03.076Z,22.5
2022-07-31T12:40:03.127Z,22.5
2022-07-31T12:45:17.702Z,22.5
2022-07-31T12:50:02.525Z,22.5
2022-07-31T12:55:02.549Z,22.5
2022-07-31T13:00:02.621Z,22.5
2022-07-31T13:05:02.740Z,22.5
2022-07-31T13:10:15.359Z,22.5
2022-07-31T13:15:03.017Z,22.5
2022-07-31T13:20:02.365Z,22.5
2022-07-31T13:25:02.552Z,22.5
2022-07-31T13:30:02.786Z,22.5
2022-07-31T13:35:20.142Z,22.5
2022-07-31T13:40:02.822Z,22.5
2022-07-31T13:45:07.750Z,22.5
2022-07-31T13:50:02.348Z,22.5
2022-07-31T13:55:02.614Z,22.5
2022-07-31T14:00:02.673Z,22.5
2022-07-31T14:05:02.503Z,22.5
2022-07-31T14:10:02.879Z,22.5
2022-07-31T14:15:03.015Z,22.5
2022-07-31T14:20:02.273Z,22.5
2022-07-31T14:25:02.489Z,22.5
2022-07-31T14:30:02.623Z,22.5
2022-07-31T14:35:07.585Z,22.5
2022-07-31T14:40:02.756Z,22.5
2022-07-31T14:45:03.055Z,22.5
2022-07-31T14:50:08.295Z,22.5
2022-07-31T14:55:02.354Z,22.5
2022-07-31T15:00:02.654Z,22.5
2022-07-31T15:06:37.838Z,22.5
2022-07-31T15:10:02.536Z,22.5
2022-07-31T15:15:02.974Z,22.5
2022-07-31T15:20:02.129Z,22.5
2022-07-31T15:25:02.287Z,22.5
2022-07-31T15:30:06.269Z,22.5
2022-07-31T15:35:03.338Z,22.5
2022-07-31T15:40:03.645Z,22.5
2022-07-31T15:45:02.715Z,22.5
2022-07-31T15:50:02.069Z,22.5
2022-07-31T15:55:02.263Z,22.5
2022-07-31T16:00:02.381Z,22.5
2022-07-31T16:05:11.670Z,22.5
2022-07-31T16:10:04.161Z,22.5
2022-07-31T16:15:02.629Z,22.5
2022-07-31T16:20:02.274Z,22.5
2022-07-31T16:25:01.972Z,22.5
2022-07-31T16:30:02.952Z,22.5
2022-07-31T16:35:03.541Z,22.5
2022-07-31T16:40:03.194Z,22.5
2022-07-31T16:45:03.518Z,22.5
2022-07-31T16:50:02.611Z,22.5
2022-07-31T16:55:01.876Z,22.5
2022-07-31T17:00:02.201Z,22.5
2022-07-31T17:05:03.002Z,22.5
2022-07-31T17:10:03.117Z,22.5
2022-07-31T17:15:03.449Z,22.5
2022-07-31T17:20:01.673Z,22.5
2022-07-31T17:25:01.847Z,22.5
2022-07-31T17:30:01.973Z,22.5
2022-07-31T17:35:02.917Z,22.5
2022-07-31T17:40:03.100Z,22.5
2022-07-31T17:45:03.425Z,22.5
2022-07-31T17:50:01.685Z,22.5
2022-07-31T17:55:01.906Z,22.5
2022-07-31T18:00:02.139Z,22.5
2022-07-31T18:05:03.255Z,22.5
2022-07-31T18:10:02.459Z,22.5
2022-07-31T18:15:02.762Z,22.5
2022-07-31T18:20:02.091Z,22.5
2022-07-31T18:25:02.287Z,22.5
2022-07-31T18:30:03.292Z,22.5
2022-07-31T18:35:03.333Z,22.5
2022-07-31T18:40:04.703Z,22.5
2022-07-31T18:45:02.518Z,22.5
2022-07-31T18:50:57.684Z,22.5
2022-07-31T18:55:02.187Z,22.5
2022-07-31T19:00:02.752Z,22.5
2022-07-31T19:05:03.159Z,22.5
2022-07-31T19:10:03.452Z,22.5
2022-07-31T19:15:03.221Z,22.5
2022-07-31T19:20:02.206Z,22.5
2022-07-31T19:25:02.008Z,22.5
2022-07-31T19:30:02.767Z,22.5
2022-07-31T19:35:03.365Z,22.5
2022-07-31T19:40:03.602Z,22.5
2022-07-31T19:45:02.676Z,22.5
2022-07-31T19:50:01.990Z,22.5
2022-07-31T19:55:02.127Z,22.5
2022-07-31T20:00:02.263Z,22.5
2022-07-31T20:05:03.131Z,22.5
2022-07-31T20:10:03.446Z,22.5
2022-07-31T20:15:01.694Z,22.5
2022-07-31T20:20:15.175Z,22.5
2022-07-31T20:25:02.095Z,22.5
2022-07-31T20:30:02.342Z,22.5
2022-07-31T20:35:03.509Z,22.5
2022-07-31T20:40:03.076Z,22.5
2022-07-31T20:45:02.546Z,22.5
2022-07-31T20:50:02.949Z,22.5
2022-07-31T20:55:01.772Z,22.5
2022-07-31T21:00:01.962Z,22.5
2022-07-31T21:05:02.804Z,22.5
2022-07-31T21:10:05.076Z,22.5
2022-07-31T21:15:02.496Z,22.5
2022-07-31T21:20:02.606Z,22.5
2022-07-31T21:25:01.723Z,22.5
2022-07-31T21:30:01.901Z,22.5
2022-07-31T21:35:02.908Z,22.5
2022-07-31T21:40:03.072Z,22.5
2022-07-31T21:45:02.574Z,22.5
2022-07-31T21:50:02.535Z,22.5
2022-07-31T21:55:02.931Z,22.5
2022-07-31T22:00:01.717Z,22.5
2022-07-31T22:05:01.839Z,22.5
2022-07-31T22:10:02.215Z,22.5
2022-07-31T22:15:02.520Z,22.5
2022-07-31T22:20:02.707Z,22.5
2022-07-31T22:25:01.752Z,22.5
2022-07-31T22:30:01.993Z,22.5
2022-07-31T22:35:02.035Z,22.5
2022-07-31T22:40:02.296Z,22.5
2022-07-31T22:45:02.440Z,22.5
2022-07-31T22:50:02.504Z,22.5
2022-07-31T22:55:02.229Z,22.5
2022-07-31T23:00:02.656Z,22.5
2022-07-31T23:05:02.651Z,22.5
2022-07-31T23:10:03.287Z,22.5
2022-07-31T23:15:02.961Z,22.5
2022-07-31T23:20:03.573Z,22.5
2022-07-31T23:25:02.514Z,22.5
2022-07-31T23:30:01.637Z,22.5
2022-07-31T23:35:01.796Z,22.5
2022-07-31T23:40:01.943Z,22.5
2022-07-31T23:45:03.038Z,22.5
2022-07-31T23:50:02.245Z,22.5
2022-07-31T23:55:02.381Z,22.5
